sensor_id;sensor_type;location;lat;lon;timestamp;pressure;altitude;pressure_sealevel;temperature
67353;BMP180;54238;52.278;21.056;2023-05-07T00:00:05;101065.00;;;6.80
67353;BMP180;54238;52.278;21.056;2023-05-07T00:02:58;101068.20;;;6.80
67353;BMP180;54238;52.278;21.056;2023-05-07T00:05:30;101068.20;;;6.80
67353;BMP180;54238;52.278;21.056;2023-05-07T00:11:12;101057.60;;;6.80
67353;BMP180;54238;52.278;21.056;2023-05-07T00:13:42;101063.00;;;6.80
67353;BMP180;54238;52.278;21.056;2023-05-07T00:16:09;101060.60;;;6.80
67353;BMP180;54238;52.278;21.056;2023-05-07T00:18:37;101064.20;;;6.80
67353;BMP180;54238;52.278;21.056;2023-05-07T00:21:06;101062.20;;;6.80
67353;BMP180;54238;52.278;21.056;2023-05-07T00:23:35;101063.40;;;6.80
67353;BMP180;54238;52.278;21.056;2023-05-07T00:26:07;101068.80;;;6.72
67353;BMP180;54238;52.278;21.056;2023-05-07T00:28:43;101062.00;;;6.70
67353;BMP180;54238;52.278;21.056;2023-05-07T00:31:12;101068.20;;;6.70
67353;BMP180;54238;52.278;21.056;2023-05-07T00:33:46;101073.80;;;6.70
67353;BMP180;54238;52.278;21.056;2023-05-07T00:36:13;101070.00;;;6.70
67353;BMP180;54238;52.278;21.056;2023-05-07T00:38:45;101069.20;;;6.70
67353;BMP180;54238;52.278;21.056;2023-05-07T00:41:19;101073.40;;;6.70
67353;BMP180;54238;52.278;21.056;2023-05-07T00:44:24;101072.40;;;6.66
67353;BMP180;54238;52.278;21.056;2023-05-07T00:46:57;101076.80;;;6.64
67353;BMP180;54238;52.278;21.056;2023-05-07T00:49:38;101077.00;;;6.62
67353;BMP180;54238;52.278;21.056;2023-05-07T00:52:13;101085.20;;;6.66
67353;BMP180;54238;52.278;21.056;2023-05-07T00:54:41;101090.20;;;6.60
67353;BMP180;54238;52.278;21.056;2023-05-07T00:57:14;101095.40;;;6.60
67353;BMP180;54238;52.278;21.056;2023-05-07T00:59:44;101097.00;;;6.60
67353;BMP180;54238;52.278;21.056;2023-05-07T01:02:11;101103.00;;;6.60
67353;BMP180;54238;52.278;21.056;2023-05-07T01:07:10;101099.20;;;6.60
67353;BMP180;54238;52.278;21.056;2023-05-07T01:12:45;101099.20;;;6.60
67353;BMP180;54238;52.278;21.056;2023-05-07T01:15:22;101100.20;;;6.60
67353;BMP180;54238;52.278;21.056;2023-05-07T01:17:49;101095.80;;;6.60
67353;BMP180;54238;52.278;21.056;2023-05-07T01:20:18;101097.60;;;6.58
67353;BMP180;54238;52.278;21.056;2023-05-07T01:22:49;101096.20;;;6.50
67353;BMP180;54238;52.278;21.056;2023-05-07T01:25:21;101099.00;;;6.50
67353;BMP180;54238;52.278;21.056;2023-05-07T01:27:56;101102.20;;;6.50
67353;BMP180;54238;52.278;21.056;2023-05-07T01:30:26;101095.80;;;6.50
67353;BMP180;54238;52.278;21.056;2023-05-07T01:33:09;101092.60;;;6.50
67353;BMP180;54238;52.278;21.056;2023-05-07T01:38:33;101100.60;;;6.40
67353;BMP180;54238;52.278;21.056;2023-05-07T01:41:06;101101.60;;;6.40
67353;BMP180;54238;52.278;21.056;2023-05-07T01:43:35;101101.20;;;6.40
67353;BMP180;54238;52.278;21.056;2023-05-07T01:46:11;101105.20;;;6.40
67353;BMP180;54238;52.278;21.056;2023-05-07T01:48:39;101100.00;;;6.30
67353;BMP180;54238;52.278;21.056;2023-05-07T01:54:06;101101.60;;;6.30
67353;BMP180;54238;52.278;21.056;2023-05-07T01:56:41;101098.80;;;6.30
67353;BMP180;54238;52.278;21.056;2023-05-07T01:59:08;101098.20;;;6.30
67353;BMP180;54238;52.278;21.056;2023-05-07T02:01:36;101099.80;;;6.30
67353;BMP180;54238;52.278;21.056;2023-05-07T02:04:08;101099.20;;;6.30
67353;BMP180;54238;52.278;21.056;2023-05-07T02:06:37;101095.40;;;6.30
67353;BMP180;54238;52.278;21.056;2023-05-07T02:09:07;101096.80;;;6.30
67353;BMP180;54238;52.278;21.056;2023-05-07T02:11:38;101096.40;;;6.28
67353;BMP180;54238;52.278;21.056;2023-05-07T02:14:07;101094.60;;;6.20
67353;BMP180;54238;52.278;21.056;2023-05-07T02:16:37;101093.40;;;6.20
67353;BMP180;54238;52.278;21.056;2023-05-07T02:19:06;101096.80;;;6.10
67353;BMP180;54238;52.278;21.056;2023-05-07T02:21:33;101096.00;;;6.10
67353;BMP180;54238;52.278;21.056;2023-05-07T02:24:03;101099.20;;;6.10
67353;BMP180;54238;52.278;21.056;2023-05-07T02:26:30;101101.00;;;6.10
67353;BMP180;54238;52.278;21.056;2023-05-07T02:29:01;101099.80;;;6.10
67353;BMP180;54238;52.278;21.056;2023-05-07T02:31:28;101099.80;;;6.10
67353;BMP180;54238;52.278;21.056;2023-05-07T02:33:57;101098.40;;;6.08
67353;BMP180;54238;52.278;21.056;2023-05-07T02:36:24;101105.20;;;6.10
67353;BMP180;54238;52.278;21.056;2023-05-07T02:38:56;101110.60;;;6.10
67353;BMP180;54238;52.278;21.056;2023-05-07T02:41:24;101103.40;;;6.10
67353;BMP180;54238;52.278;21.056;2023-05-07T02:43:51;101102.80;;;6.10
67353;BMP180;54238;52.278;21.056;2023-05-07T02:46:21;101109.40;;;6.10
67353;BMP180;54238;52.278;21.056;2023-05-07T02:48:50;101101.40;;;6.10
67353;BMP180;54238;52.278;21.056;2023-05-07T02:51:21;101102.20;;;6.10
67353;BMP180;54238;52.278;21.056;2023-05-07T02:53:53;101103.20;;;6.10
67353;BMP180;54238;52.278;21.056;2023-05-07T02:56:31;101105.80;;;6.10
67353;BMP180;54238;52.278;21.056;2023-05-07T02:59:01;101109.40;;;6.10
67353;BMP180;54238;52.278;21.056;2023-05-07T03:01:30;101111.00;;;6.10
67353;BMP180;54238;52.278;21.056;2023-05-07T03:03:59;101109.80;;;6.10
67353;BMP180;54238;52.278;21.056;2023-05-07T03:06:27;101117.60;;;6.10
67353;BMP180;54238;52.278;21.056;2023-05-07T03:08:55;101115.60;;;6.16
67353;BMP180;54238;52.278;21.056;2023-05-07T03:11:24;101117.20;;;6.10
67353;BMP180;54238;52.278;21.056;2023-05-07T03:13:57;101115.00;;;6.10
67353;BMP180;54238;52.278;21.056;2023-05-07T03:16:26;101119.00;;;6.10
67353;BMP180;54238;52.278;21.056;2023-05-07T03:21:56;101126.60;;;6.10
67353;BMP180;54238;52.278;21.056;2023-05-07T03:24:26;101133.20;;;6.10
67353;BMP180;54238;52.278;21.056;2023-05-07T03:26:58;101132.20;;;6.10
67353;BMP180;54238;52.278;21.056;2023-05-07T03:29:28;101132.40;;;6.10
67353;BMP180;54238;52.278;21.056;2023-05-07T03:32:01;101141.20;;;6.10
67353;BMP180;54238;52.278;21.056;2023-05-07T03:34:31;101140.60;;;6.10
67353;BMP180;54238;52.278;21.056;2023-05-07T03:36:58;101141.60;;;6.10
67353;BMP180;54238;52.278;21.056;2023-05-07T03:39:25;101147.60;;;6.10
67353;BMP180;54238;52.278;21.056;2023-05-07T03:41:55;101150.40;;;6.10
67353;BMP180;54238;52.278;21.056;2023-05-07T03:44:28;101146.20;;;6.10
67353;BMP180;54238;52.278;21.056;2023-05-07T03:47:02;101154.20;;;6.10
67353;BMP180;54238;52.278;21.056;2023-05-07T03:49:31;101156.60;;;6.10
67353;BMP180;54238;52.278;21.056;2023-05-07T03:52:01;101160.20;;;6.10
67353;BMP180;54238;52.278;21.056;2023-05-07T03:54:28;101164.80;;;6.10
67353;BMP180;54238;52.278;21.056;2023-05-07T03:56:55;101167.80;;;6.20
67353;BMP180;54238;52.278;21.056;2023-05-07T03:59:30;101165.60;;;6.20
67353;BMP180;54238;52.278;21.056;2023-05-07T04:01:58;101167.00;;;6.20
67353;BMP180;54238;52.278;21.056;2023-05-07T04:04:27;101166.20;;;6.20
67353;BMP180;54238;52.278;21.056;2023-05-07T04:06:56;101166.80;;;6.20
67353;BMP180;54238;52.278;21.056;2023-05-07T04:09:28;101165.60;;;6.20
67353;BMP180;54238;52.278;21.056;2023-05-07T04:11:58;101172.00;;;6.20
67353;BMP180;54238;52.278;21.056;2023-05-07T04:14:30;101176.60;;;6.20
67353;BMP180;54238;52.278;21.056;2023-05-07T04:17:02;101178.80;;;6.20
67353;BMP180;54238;52.278;21.056;2023-05-07T04:19:33;101181.60;;;6.20
67353;BMP180;54238;52.278;21.056;2023-05-07T04:22:03;101188.40;;;6.20
67353;BMP180;54238;52.278;21.056;2023-05-07T04:24:34;101192.80;;;6.20
67353;BMP180;54238;52.278;21.056;2023-05-07T04:27:07;101191.40;;;6.28
67353;BMP180;54238;52.278;21.056;2023-05-07T04:29:37;101192.00;;;6.30
67353;BMP180;54238;52.278;21.056;2023-05-07T04:32:09;101193.80;;;6.30
67353;BMP180;54238;52.278;21.056;2023-05-07T04:34:36;101201.40;;;6.30
67353;BMP180;54238;52.278;21.056;2023-05-07T04:40:02;101201.40;;;6.40
67353;BMP180;54238;52.278;21.056;2023-05-07T04:42:34;101201.20;;;6.40
67353;BMP180;54238;52.278;21.056;2023-05-07T04:45:03;101201.20;;;6.40
67353;BMP180;54238;52.278;21.056;2023-05-07T04:47:36;101202.40;;;6.48
67353;BMP180;54238;52.278;21.056;2023-05-07T04:50:05;101205.80;;;6.50
67353;BMP180;54238;52.278;21.056;2023-05-07T04:52:38;101211.20;;;6.50
67353;BMP180;54238;52.278;21.056;2023-05-07T04:55:11;101214.40;;;6.50
67353;BMP180;54238;52.278;21.056;2023-05-07T04:57:45;101212.20;;;6.50
67353;BMP180;54238;52.278;21.056;2023-05-07T05:00:13;101212.00;;;6.50
67353;BMP180;54238;52.278;21.056;2023-05-07T05:02:51;101211.60;;;6.60
67353;BMP180;54238;52.278;21.056;2023-05-07T05:05:23;101216.00;;;6.64
67353;BMP180;54238;52.278;21.056;2023-05-07T05:07:50;101220.20;;;6.70
67353;BMP180;54238;52.278;21.056;2023-05-07T05:10:20;101225.00;;;6.80
67353;BMP180;54238;52.278;21.056;2023-05-07T05:12:48;101225.60;;;6.80
67353;BMP180;54238;52.278;21.056;2023-05-07T05:15:22;101226.60;;;6.90
67353;BMP180;54238;52.278;21.056;2023-05-07T05:17:51;101230.00;;;7.00
67353;BMP180;54238;52.278;21.056;2023-05-07T05:20:23;101227.20;;;7.10
67353;BMP180;54238;52.278;21.056;2023-05-07T05:22:57;101231.80;;;7.16
67353;BMP180;54238;52.278;21.056;2023-05-07T05:25:26;101236.00;;;7.20
67353;BMP180;54238;52.278;21.056;2023-05-07T05:27:57;101242.00;;;7.20
67353;BMP180;54238;52.278;21.056;2023-05-07T05:30:31;101241.00;;;7.30
67353;BMP180;54238;52.278;21.056;2023-05-07T05:33:01;101239.40;;;7.40
67353;BMP180;54238;52.278;21.056;2023-05-07T05:35:29;101247.20;;;7.50
67353;BMP180;54238;52.278;21.056;2023-05-07T05:37:59;101244.00;;;7.50
67353;BMP180;54238;52.278;21.056;2023-05-07T05:40:29;101244.80;;;7.50
67353;BMP180;54238;52.278;21.056;2023-05-07T05:42:56;101248.20;;;7.50
67353;BMP180;54238;52.278;21.056;2023-05-07T05:45:30;101249.40;;;7.54
67353;BMP180;54238;52.278;21.056;2023-05-07T05:48:02;101249.40;;;7.60
67353;BMP180;54238;52.278;21.056;2023-05-07T05:50:32;101251.00;;;7.70
67353;BMP180;54238;52.278;21.056;2023-05-07T05:53:01;101256.20;;;7.70
67353;BMP180;54238;52.278;21.056;2023-05-07T05:55:31;101256.60;;;7.80
67353;BMP180;54238;52.278;21.056;2023-05-07T05:58:00;101259.80;;;7.90
67353;BMP180;54238;52.278;21.056;2023-05-07T06:00:30;101264.00;;;7.90
67353;BMP180;54238;52.278;21.056;2023-05-07T06:02:57;101270.80;;;7.90
67353;BMP180;54238;52.278;21.056;2023-05-07T06:05:27;101274.60;;;7.90
67353;BMP180;54238;52.278;21.056;2023-05-07T06:07:59;101277.00;;;7.90
67353;BMP180;54238;52.278;21.056;2023-05-07T06:10:28;101276.00;;;7.90
67353;BMP180;54238;52.278;21.056;2023-05-07T06:12:59;101273.80;;;7.90
67353;BMP180;54238;52.278;21.056;2023-05-07T06:15:31;101274.60;;;7.96
67353;BMP180;54238;52.278;21.056;2023-05-07T06:18:03;101275.20;;;8.00
67353;BMP180;54238;52.278;21.056;2023-05-07T06:20:32;101276.20;;;8.00
67353;BMP180;54238;52.278;21.056;2023-05-07T06:23:04;101276.60;;;8.00
67353;BMP180;54238;52.278;21.056;2023-05-07T06:25:31;101284.80;;;8.10
67353;BMP180;54238;52.278;21.056;2023-05-07T06:28:01;101289.40;;;8.10
67353;BMP180;54238;52.278;21.056;2023-05-07T06:30:31;101289.80;;;8.10
67353;BMP180;54238;52.278;21.056;2023-05-07T06:33:03;101292.40;;;8.10
67353;BMP180;54238;52.278;21.056;2023-05-07T06:35:31;101290.40;;;8.20
67353;BMP180;54238;52.278;21.056;2023-05-07T06:38:07;101297.00;;;8.20
67353;BMP180;54238;52.278;21.056;2023-05-07T06:40:37;101299.20;;;8.20
67353;BMP180;54238;52.278;21.056;2023-05-07T06:43:04;101303.20;;;8.20
67353;BMP180;54238;52.278;21.056;2023-05-07T06:45:34;101305.20;;;8.30
67353;BMP180;54238;52.278;21.056;2023-05-07T06:48:04;101299.60;;;8.30
67353;BMP180;54238;52.278;21.056;2023-05-07T06:50:31;101299.60;;;8.36
67353;BMP180;54238;52.278;21.056;2023-05-07T06:52:58;101301.00;;;8.40
67353;BMP180;54238;52.278;21.056;2023-05-07T06:55:25;101303.00;;;8.50
67353;BMP180;54238;52.278;21.056;2023-05-07T06:58:00;101301.00;;;8.50
67353;BMP180;54238;52.278;21.056;2023-05-07T07:00:31;101305.20;;;8.60
67353;BMP180;54238;52.278;21.056;2023-05-07T07:03:01;101305.80;;;8.70
67353;BMP180;54238;52.278;21.056;2023-05-07T07:05:31;101308.40;;;8.70
67353;BMP180;54238;52.278;21.056;2023-05-07T07:08:05;101308.40;;;8.72
67353;BMP180;54238;52.278;21.056;2023-05-07T07:10:32;101310.00;;;8.90
67353;BMP180;54238;52.278;21.056;2023-05-07T07:13:01;101314.80;;;8.90
67353;BMP180;54238;52.278;21.056;2023-05-07T07:15:34;101314.40;;;8.98
67353;BMP180;54238;52.278;21.056;2023-05-07T07:18:01;101313.60;;;9.08
67353;BMP180;54238;52.278;21.056;2023-05-07T07:20:33;101317.80;;;9.14
67353;BMP180;54238;52.278;21.056;2023-05-07T07:23:01;101322.00;;;9.26
67353;BMP180;54238;52.278;21.056;2023-05-07T07:25:28;101324.80;;;9.34
67353;BMP180;54238;52.278;21.056;2023-05-07T07:27:59;101321.80;;;9.50
67353;BMP180;54238;52.278;21.056;2023-05-07T07:30:32;101323.80;;;9.60
67353;BMP180;54238;52.278;21.056;2023-05-07T07:33:01;101331.20;;;9.70
67353;BMP180;54238;52.278;21.056;2023-05-07T07:35:32;101336.80;;;9.70
67353;BMP180;54238;52.278;21.056;2023-05-07T07:38:04;101334.80;;;9.70
67353;BMP180;54238;52.278;21.056;2023-05-07T07:40:41;101336.40;;;9.80
67353;BMP180;54238;52.278;21.056;2023-05-07T07:43:10;101343.60;;;9.80
67353;BMP180;54238;52.278;21.056;2023-05-07T07:45:38;101341.60;;;9.90
67353;BMP180;54238;52.278;21.056;2023-05-07T07:48:05;101345.00;;;9.82
67353;BMP180;54238;52.278;21.056;2023-05-07T07:50:37;101344.40;;;9.86
67353;BMP180;54238;52.278;21.056;2023-05-07T07:53:08;101335.40;;;9.90
67353;BMP180;54238;52.278;21.056;2023-05-07T07:55:40;101349.20;;;9.90
67353;BMP180;54238;52.278;21.056;2023-05-07T07:58:11;101340.00;;;9.90
67353;BMP180;54238;52.278;21.056;2023-05-07T08:00:57;101343.80;;;9.90
67353;BMP180;54238;52.278;21.056;2023-05-07T08:03:26;101347.80;;;9.90
67353;BMP180;54238;52.278;21.056;2023-05-07T08:05:58;101343.40;;;10.00
67353;BMP180;54238;52.278;21.056;2023-05-07T08:08:30;101348.00;;;10.00
67353;BMP180;54238;52.278;21.056;2023-05-07T08:10:57;101348.80;;;10.00
67353;BMP180;54238;52.278;21.056;2023-05-07T08:13:25;101355.20;;;10.20
67353;BMP180;54238;52.278;21.056;2023-05-07T08:15:54;101356.40;;;10.40
67353;BMP180;54238;52.278;21.056;2023-05-07T08:18:22;101352.00;;;10.60
67353;BMP180;54238;52.278;21.056;2023-05-07T08:20:52;101365.00;;;10.72
67353;BMP180;54238;52.278;21.056;2023-05-07T08:23:22;101365.20;;;10.80
67353;BMP180;54238;52.278;21.056;2023-05-07T08:25:51;101354.20;;;10.80
67353;BMP180;54238;52.278;21.056;2023-05-07T08:28:21;101365.80;;;11.00
67353;BMP180;54238;52.278;21.056;2023-05-07T08:30:53;101366.20;;;11.20
67353;BMP180;54238;52.278;21.056;2023-05-07T08:33:23;101365.40;;;11.40
67353;BMP180;54238;52.278;21.056;2023-05-07T08:35:53;101366.00;;;11.50
67353;BMP180;54238;52.278;21.056;2023-05-07T08:38:24;101369.00;;;11.50
67353;BMP180;54238;52.278;21.056;2023-05-07T08:40:52;101368.60;;;11.40
67353;BMP180;54238;52.278;21.056;2023-05-07T08:43:59;101376.80;;;11.40
67353;BMP180;54238;52.278;21.056;2023-05-07T08:46:51;101376.40;;;11.50
67353;BMP180;54238;52.278;21.056;2023-05-07T08:49:21;101378.60;;;11.64
67353;BMP180;54238;52.278;21.056;2023-05-07T08:51:51;101373.20;;;11.80
67353;BMP180;54238;52.278;21.056;2023-05-07T08:54:39;101367.60;;;12.02
67353;BMP180;54238;52.278;21.056;2023-05-07T08:57:08;101376.60;;;12.38
67353;BMP180;54238;52.278;21.056;2023-05-07T08:59:40;101383.40;;;12.40
67353;BMP180;54238;52.278;21.056;2023-05-07T09:02:14;101388.00;;;12.40
67353;BMP180;54238;52.278;21.056;2023-05-07T09:05:04;101395.60;;;12.40
67353;BMP180;54238;52.278;21.056;2023-05-07T09:07:37;101393.40;;;12.34
67353;BMP180;54238;52.278;21.056;2023-05-07T09:10:09;101391.20;;;12.30
67353;BMP180;54238;52.278;21.056;2023-05-07T09:12:59;101389.80;;;12.20
67353;BMP180;54238;52.278;21.056;2023-05-07T09:15:31;101383.00;;;12.10
67353;BMP180;54238;52.278;21.056;2023-05-07T09:18:05;101392.20;;;12.20
67353;BMP180;54238;52.278;21.056;2023-05-07T09:20:37;101388.60;;;12.50
67353;BMP180;54238;52.278;21.056;2023-05-07T09:23:06;101386.40;;;12.98
67353;BMP180;54238;52.278;21.056;2023-05-07T09:25:37;101394.00;;;13.28
67353;BMP180;54238;52.278;21.056;2023-05-07T09:28:05;101399.60;;;13.50
67353;BMP180;54238;52.278;21.056;2023-05-07T09:30:42;101402.00;;;13.50
67353;BMP180;54238;52.278;21.056;2023-05-07T09:33:09;101406.60;;;13.40
67353;BMP180;54238;52.278;21.056;2023-05-07T09:35:41;101420.40;;;13.30
67353;BMP180;54238;52.278;21.056;2023-05-07T09:38:17;101421.60;;;13.20
67353;BMP180;54238;52.278;21.056;2023-05-07T09:41:07;101417.80;;;13.26
67353;BMP180;54238;52.278;21.056;2023-05-07T09:43:38;101418.80;;;13.50
67353;BMP180;54238;52.278;21.056;2023-05-07T09:46:14;101421.00;;;13.70
67353;BMP180;54238;52.278;21.056;2023-05-07T09:48:46;101418.80;;;14.00
67353;BMP180;54238;52.278;21.056;2023-05-07T09:51:50;101424.00;;;13.92
67353;BMP180;54238;52.278;21.056;2023-05-07T09:54:20;101420.80;;;13.80
67353;BMP180;54238;52.278;21.056;2023-05-07T09:56:48;101428.20;;;13.70
67353;BMP180;54238;52.278;21.056;2023-05-07T09:59:20;101433.60;;;13.60
67353;BMP180;54238;52.278;21.056;2023-05-07T10:01:55;101425.80;;;13.86
67353;BMP180;54238;52.278;21.056;2023-05-07T10:04:28;101432.20;;;14.24
67353;BMP180;54238;52.278;21.056;2023-05-07T10:06:57;101430.00;;;14.60
67353;BMP180;54238;52.278;21.056;2023-05-07T10:12:29;101429.40;;;14.78
67353;BMP180;54238;52.278;21.056;2023-05-07T10:14:57;101432.40;;;14.80
67353;BMP180;54238;52.278;21.056;2023-05-07T10:17:26;101431.60;;;15.00
67353;BMP180;54238;52.278;21.056;2023-05-07T10:19:54;101434.40;;;15.46
67353;BMP180;54238;52.278;21.056;2023-05-07T10:22:25;101442.60;;;15.70
67353;BMP180;54238;52.278;21.056;2023-05-07T10:24:57;101446.80;;;15.60
67353;BMP180;54238;52.278;21.056;2023-05-07T10:27:31;101448.40;;;15.72
67353;BMP180;54238;52.278;21.056;2023-05-07T10:30:25;101444.60;;;15.80
67353;BMP180;54238;52.278;21.056;2023-05-07T10:32:59;101448.00;;;15.96
67353;BMP180;54238;52.278;21.056;2023-05-07T10:35:41;101449.40;;;15.90
67353;BMP180;54238;52.278;21.056;2023-05-07T10:38:12;101454.00;;;15.56
67353;BMP180;54238;52.278;21.056;2023-05-07T10:40:45;101454.20;;;15.20
67353;BMP180;54238;52.278;21.056;2023-05-07T10:43:15;101449.20;;;14.90
67353;BMP180;54238;52.278;21.056;2023-05-07T10:46:19;101456.20;;;14.58
67353;BMP180;54238;52.278;21.056;2023-05-07T10:51:30;101460.00;;;14.20
67353;BMP180;54238;52.278;21.056;2023-05-07T10:56:44;101457.40;;;14.26
67353;BMP180;54238;52.278;21.056;2023-05-07T11:02:02;101462.60;;;14.40
67353;BMP180;54238;52.278;21.056;2023-05-07T11:04:36;101467.80;;;14.50
67353;BMP180;54238;52.278;21.056;2023-05-07T11:15:10;101474.20;;;14.10
67353;BMP180;54238;52.278;21.056;2023-05-07T11:18:00;101469.60;;;14.08
67353;BMP180;54238;52.278;21.056;2023-05-07T11:20:57;101470.80;;;14.10
67353;BMP180;54238;52.278;21.056;2023-05-07T11:26:13;101466.80;;;14.90
67353;BMP180;54238;52.278;21.056;2023-05-07T11:28:43;101472.60;;;15.62
67353;BMP180;54238;52.278;21.056;2023-05-07T11:31:13;101474.60;;;16.10
67353;BMP180;54238;52.278;21.056;2023-05-07T11:33:46;101479.40;;;16.20
67353;BMP180;54238;52.278;21.056;2023-05-07T11:36:16;101479.60;;;16.10
67353;BMP180;54238;52.278;21.056;2023-05-07T11:38:48;101488.80;;;15.80
67353;BMP180;54238;52.278;21.056;2023-05-07T11:41:18;101487.40;;;15.40
67353;BMP180;54238;52.278;21.056;2023-05-07T11:43:56;101485.00;;;15.02
67353;BMP180;54238;52.278;21.056;2023-05-07T11:46:33;101487.20;;;14.80
67353;BMP180;54238;52.278;21.056;2023-05-07T11:49:00;101488.80;;;14.70
67353;BMP180;54238;52.278;21.056;2023-05-07T11:51:29;101493.40;;;14.60
67353;BMP180;54238;52.278;21.056;2023-05-07T11:53:59;101491.40;;;14.60
67353;BMP180;54238;52.278;21.056;2023-05-07T11:56:29;101491.00;;;14.68
67353;BMP180;54238;52.278;21.056;2023-05-07T11:58:57;101487.60;;;14.90
67353;BMP180;54238;52.278;21.056;2023-05-07T12:01:24;101490.40;;;15.42
67353;BMP180;54238;52.278;21.056;2023-05-07T12:03:56;101489.80;;;15.88
67353;BMP180;54238;52.278;21.056;2023-05-07T12:06:28;101490.60;;;16.30
67353;BMP180;54238;52.278;21.056;2023-05-07T12:08:58;101495.80;;;16.40
67353;BMP180;54238;52.278;21.056;2023-05-07T12:11:35;101500.80;;;16.54
67353;BMP180;54238;52.278;21.056;2023-05-07T12:14:04;101506.60;;;16.62
67353;BMP180;54238;52.278;21.056;2023-05-07T12:16:31;101498.60;;;16.70
67353;BMP180;54238;52.278;21.056;2023-05-07T12:19:01;101505.20;;;16.70
67353;BMP180;54238;52.278;21.056;2023-05-07T12:21:33;101501.40;;;16.70
67353;BMP180;54238;52.278;21.056;2023-05-07T12:24:04;101500.40;;;16.64
67353;BMP180;54238;52.278;21.056;2023-05-07T12:26:31;101502.60;;;16.80
67353;BMP180;54238;52.278;21.056;2023-05-07T12:28:59;101502.40;;;16.82
67353;BMP180;54238;52.278;21.056;2023-05-07T12:31:28;101513.80;;;16.80
67353;BMP180;54238;52.278;21.056;2023-05-07T12:33:55;101519.20;;;16.58
67353;BMP180;54238;52.278;21.056;2023-05-07T12:36:22;101508.00;;;16.46
67353;BMP180;54238;52.278;21.056;2023-05-07T12:38:54;101507.00;;;16.40
67353;BMP180;54238;52.278;21.056;2023-05-07T12:41:24;101502.80;;;16.40
67353;BMP180;54238;52.278;21.056;2023-05-07T12:43:56;101502.00;;;16.40
67353;BMP180;54238;52.278;21.056;2023-05-07T12:46:27;101507.80;;;16.50
67353;BMP180;54238;52.278;21.056;2023-05-07T12:49:04;101511.00;;;16.80
67353;BMP180;54238;52.278;21.056;2023-05-07T12:51:31;101512.60;;;17.10
67353;BMP180;54238;52.278;21.056;2023-05-07T12:54:05;101509.40;;;17.46
67353;BMP180;54238;52.278;21.056;2023-05-07T12:56:36;101517.80;;;17.90
67353;BMP180;54238;52.278;21.056;2023-05-07T12:59:06;101513.60;;;18.12
67353;BMP180;54238;52.278;21.056;2023-05-07T13:01:35;101522.60;;;18.20
67353;BMP180;54238;52.278;21.056;2023-05-07T13:04:05;101524.00;;;18.02
67353;BMP180;54238;52.278;21.056;2023-05-07T13:06:32;101524.80;;;18.00
67353;BMP180;54238;52.278;21.056;2023-05-07T13:09:04;101519.20;;;17.80
67353;BMP180;54238;52.278;21.056;2023-05-07T13:18:47;101511.80;;;19.10
67353;BMP180;54238;52.278;21.056;2023-05-07T13:21:14;101513.00;;;19.42
67353;BMP180;54238;52.278;21.056;2023-05-07T13:23:46;101518.80;;;20.12
67353;BMP180;54238;52.278;21.056;2023-05-07T13:26:18;101514.20;;;20.68
67353;BMP180;54238;52.278;21.056;2023-05-07T13:28:54;101517.60;;;21.10
67353;BMP180;54238;52.278;21.056;2023-05-07T13:31:24;101516.00;;;21.60
67353;BMP180;54238;52.278;21.056;2023-05-07T13:33:52;101519.60;;;21.40
67353;BMP180;54238;52.278;21.056;2023-05-07T13:36:22;101527.40;;;21.08
67353;BMP180;54238;52.278;21.056;2023-05-07T13:38:53;101514.00;;;20.82
67353;BMP180;54238;52.278;21.056;2023-05-07T13:41:23;101512.60;;;21.00
67353;BMP180;54238;52.278;21.056;2023-05-07T13:43:52;101506.60;;;20.98
67353;BMP180;54238;52.278;21.056;2023-05-07T13:46:21;101516.40;;;20.98
67353;BMP180;54238;52.278;21.056;2023-05-07T13:48:48;101514.60;;;20.82
67353;BMP180;54238;52.278;21.056;2023-05-07T13:51:22;101516.00;;;20.90
67353;BMP180;54238;52.278;21.056;2023-05-07T13:53:49;101513.80;;;21.04
67353;BMP180;54238;52.278;21.056;2023-05-07T13:56:18;101506.80;;;21.54
67353;BMP180;54238;52.278;21.056;2023-05-07T13:58:50;101509.80;;;21.84
67353;BMP180;54238;52.278;21.056;2023-05-07T14:01:19;101511.20;;;22.16
67353;BMP180;54238;52.278;21.056;2023-05-07T14:03:51;101507.00;;;22.40
67353;BMP180;54238;52.278;21.056;2023-05-07T14:06:25;101511.80;;;22.74
67353;BMP180;54238;52.278;21.056;2023-05-07T14:08:54;101521.20;;;22.90
67353;BMP180;54238;52.278;21.056;2023-05-07T14:11:24;101516.40;;;22.84
67353;BMP180;54238;52.278;21.056;2023-05-07T14:13:51;101516.20;;;22.60
67353;BMP180;54238;52.278;21.056;2023-05-07T14:16:23;101527.80;;;22.80
67353;BMP180;54238;52.278;21.056;2023-05-07T14:18:53;101525.00;;;23.20
67353;BMP180;54238;52.278;21.056;2023-05-07T14:21:20;101515.20;;;23.40
67353;BMP180;54238;52.278;21.056;2023-05-07T14:23:47;101521.00;;;23.60
67353;BMP180;54238;52.278;21.056;2023-05-07T14:26:17;101525.40;;;23.60
67353;BMP180;54238;52.278;21.056;2023-05-07T14:28:46;101526.80;;;23.50
67353;BMP180;54238;52.278;21.056;2023-05-07T14:31:16;101534.60;;;23.70
67353;BMP180;54238;52.278;21.056;2023-05-07T14:33:48;101529.40;;;23.92
67353;BMP180;54238;52.278;21.056;2023-05-07T14:36:21;101538.80;;;23.90
67353;BMP180;54238;52.278;21.056;2023-05-07T14:38:49;101539.00;;;23.90
67353;BMP180;54238;52.278;21.056;2023-05-07T14:41:20;101539.60;;;23.90
67353;BMP180;54238;52.278;21.056;2023-05-07T14:43:50;101540.00;;;23.84
67353;BMP180;54238;52.278;21.056;2023-05-07T14:46:18;101538.80;;;23.58
67353;BMP180;54238;52.278;21.056;2023-05-07T14:48:46;101544.20;;;23.30
67353;BMP180;54238;52.278;21.056;2023-05-07T14:54:57;101548.80;;;23.58
67353;BMP180;54238;52.278;21.056;2023-05-07T14:57:27;101545.00;;;23.60
67353;BMP180;54238;52.278;21.056;2023-05-07T15:00:01;101548.40;;;23.80
67353;BMP180;54238;52.278;21.056;2023-05-07T15:02:31;101543.40;;;23.80
67353;BMP180;54238;52.278;21.056;2023-05-07T15:05:03;101541.20;;;23.80
67353;BMP180;54238;52.278;21.056;2023-05-07T15:07:31;101540.40;;;23.80